Time;durP1;ratioP1;P1;durP2;ratioP2;P2;SDS_P1;SDS_P2;PMS_P1;PMS_P2;Temp;Humidity;BMP_temperature;BMP_pressure;BME280_temperature;BME280_humidity;BME280_pressure;Samples;Min_cycle;Max_cycle;Signal;HPM_P1;HPM_P2
2023/10/28 00:01:14;;;;;;;;;;;18.90;86.10;;;;;;6340441;22;42768;-79
2023/10/28 00:03:39;;;;;;;;;;;19.00;85.60;;;;;;6339078;22;44078;-75
2023/10/28 00:06:07;;;;;;;;;;;18.80;85.70;;;;;;6340103;22;42882;-77
2023/10/28 00:08:33;;;;;;;;;;;18.80;85.40;;;;;;6340732;22;43340;-79
2023/10/28 00:11:00;;;;;;;;;;;19.00;85.30;;;;;;6340894;22;42855;-76
2023/10/28 00:13:25;;;;;;;;;;;18.90;86.00;;;;;;6340045;22;43369;-76
2023/10/28 00:15:51;;;;;;;;;;;18.80;85.30;;;;;;6340096;22;42893;-78
2023/10/28 00:18:16;;;;;;;;;;;18.80;85.60;;;;;;6340758;22;42782;-77
2023/10/28 00:20:44;;;;;;;;;;;18.80;85.70;;;;;;6341026;22;43155;-76
2023/10/28 00:23:09;;;;;;;;;;;18.80;85.60;;;;;;6339759;22;43013;-76
2023/10/28 00:25:35;;;;;;;;;;;18.70;85.40;;;;;;6340701;22;42802;-77
2023/10/28 00:28:00;;;;;;;;;;;18.70;86.00;;;;;;6339559;22;43419;-76
2023/10/28 00:30:26;;;;;;;;;;;18.80;85.70;;;;;;6340747;22;42737;-75
2023/10/28 00:32:57;;;;;;;;;;;18.70;84.50;;;;;;6340198;22;43487;-79
2023/10/28 00:35:23;;;;;;;;;;;18.80;86.30;;;;;;6313213;22;43081;-76
2023/10/28 00:37:48;;;;;;;;;;;18.80;86.40;;;;;;6339953;22;43296;-76
2023/10/28 00:40:15;;;;;;;;;;;18.90;85.60;;;;;;6340329;22;42877;-76
2023/10/28 00:42:41;;;;;;;;;;;18.70;84.30;;;;;;6339561;22;42747;-76
2023/10/28 00:45:09;;;;;;;;;;;18.90;86.10;;;;;;6340039;22;42929;-76
2023/10/28 00:47:38;;;;;;;;;;;19.00;86.20;;;;;;6340183;22;43557;-76
2023/10/28 00:50:09;;;;;;;;;;;19.10;84.00;;;;;;6340566;22;42883;-77
2023/10/28 00:52:39;;;;;;;;;;;19.00;85.10;;;;;;6313116;22;43472;-76
2023/10/28 00:55:09;;;;;;;;;;;19.10;83.20;;;;;;6341173;22;42865;-77
2023/10/28 00:57:35;;;;;;;;;;;19.10;84.20;;;;;;6340050;22;42779;-75
2023/10/28 01:00:01;;;;;;;;;;;19.00;83.70;;;;;;6339996;22;43140;-75
2023/10/28 01:02:27;;;;;;;;;;;18.90;84.20;;;;;;6339857;22;43004;-75
2023/10/28 01:04:53;;;;;;;;;;;18.90;84.00;;;;;;6339807;22;42765;-77
2023/10/28 01:07:19;;;;;;;;;;;18.70;83.60;;;;;;6339515;22;43418;-75
2023/10/28 01:09:46;;;;;;;;;;;18.70;84.40;;;;;;6339715;22;42828;-76
2023/10/28 01:12:13;;;;;;;;;;;18.60;84.60;;;;;;6311567;22;42883;-80
2023/10/28 01:14:39;;;;;;;;;;;18.60;85.20;;;;;;6340214;22;42866;-76
2023/10/28 01:17:05;;;;;;;;;;;18.60;84.90;;;;;;6339952;22;42877;-76
2023/10/28 01:19:31;;;;;;;;;;;18.60;84.90;;;;;;6341816;22;42816;-76
2023/10/28 01:21:56;;;;;;;;;;;18.70;85.10;;;;;;6346198;22;42898;-75
2023/10/28 01:24:22;;;;;;;;;;;18.60;85.10;;;;;;6345596;22;42920;-77
2023/10/28 01:26:47;;;;;;;;;;;18.70;85.40;;;;;;6342414;22;43461;-76
2023/10/28 01:29:13;;;;;;;;;;;18.80;85.70;;;;;;6340267;22;42838;-78
2023/10/28 01:31:38;;;;;;;;;;;18.60;84.60;;;;;;6340103;22;42954;-75
2023/10/28 01:34:04;;;;;;;;;;;18.70;84.50;;;;;;6340362;22;42711;-76
2023/10/28 01:36:30;;;;;;;;;;;18.60;84.60;;;;;;6339524;22;42882;-75
2023/10/28 01:38:56;;;;;;;;;;;18.80;84.80;;;;;;6338714;22;43047;-75
2023/10/28 01:41:22;;;;;;;;;;;18.50;85.70;;;;;;6339740;22;42774;-75
2023/10/28 01:43:48;;;;;;;;;;;18.70;85.60;;;;;;6340196;22;43061;-75
2023/10/28 01:46:13;;;;;;;;;;;18.80;84.80;;;;;;6339942;22;43471;-76
2023/10/28 01:48:38;;;;;;;;;;;18.80;85.10;;;;;;6338833;22;42859;-76
2023/10/28 01:51:04;;;;;;;;;;;18.70;85.20;;;;;;6338421;22;42949;-76
2023/10/28 01:53:30;;;;;;;;;;;18.90;84.80;;;;;;6339756;22;42983;-75
2023/10/28 01:55:58;;;;;;;;;;;18.80;84.30;;;;;;6339776;22;42792;-75
2023/10/28 01:58:24;;;;;;;;;;;18.90;83.80;;;;;;6340052;22;42914;-80
2023/10/28 02:00:49;;;;;;;;;;;18.60;84.10;;;;;;6338991;22;42874;-74
2023/10/28 02:03:15;;;;;;;;;;;18.70;85.50;;;;;;6339120;22;42928;-75
2023/10/28 02:05:40;;;;;;;;;;;18.80;84.70;;;;;;6339586;22;42844;-77
2023/10/28 02:08:06;;;;;;;;;;;18.70;84.20;;;;;;6312419;22;42875;-75
2023/10/28 02:10:32;;;;;;;;;;;18.60;84.40;;;;;;6339705;22;42898;-77
2023/10/28 02:12:58;;;;;;;;;;;18.70;84.80;;;;;;6340846;22;42884;-75
2023/10/28 02:15:24;;;;;;;;;;;18.60;84.80;;;;;;6338992;22;42996;-76
2023/10/28 02:17:49;;;;;;;;;;;18.50;84.40;;;;;;6340702;22;43100;-76
2023/10/28 02:20:15;;;;;;;;;;;18.70;85.30;;;;;;6339544;22;42890;-76
2023/10/28 02:22:41;;;;;;;;;;;18.70;84.80;;;;;;6339404;22;42923;-75
2023/10/28 02:25:08;;;;;;;;;;;18.60;84.70;;;;;;6339307;22;42898;-74
2023/10/28 02:27:33;;;;;;;;;;;18.60;84.50;;;;;;6339072;22;43016;-80
2023/10/28 02:29:59;;;;;;;;;;;18.60;85.90;;;;;;6339809;22;43258;-75
2023/10/28 02:32:24;;;;;;;;;;;18.60;85.30;;;;;;6339318;22;42843;-77
2023/10/28 02:34:50;;;;;;;;;;;18.70;84.90;;;;;;6339216;22;43588;-74
2023/10/28 02:37:15;;;;;;;;;;;18.70;84.50;;;;;;6339995;22;42910;-75
2023/10/28 02:39:41;;;;;;;;;;;18.70;84.30;;;;;;6339704;22;43242;-75
2023/10/28 02:42:07;;;;;;;;;;;18.70;84.20;;;;;;6339504;22;43222;-75
2023/10/28 02:44:33;;;;;;;;;;;18.90;85.40;;;;;;6338712;22;42929;-77
2023/10/28 02:46:59;;;;;;;;;;;18.80;84.70;;;;;;6339531;22;42921;-76
2023/10/28 02:49:25;;;;;;;;;;;18.70;84.50;;;;;;6339821;22;42894;-77
2023/10/28 02:51:50;;;;;;;;;;;18.60;84.90;;;;;;6339149;22;42880;-75
2023/10/28 02:54:16;;;;;;;;;;;18.60;85.80;;;;;;6339195;22;43285;-75
2023/10/28 02:56:41;;;;;;;;;;;18.60;85.40;;;;;;6338194;22;43037;-76
2023/10/28 02:59:07;;;;;;;;;;;18.80;85.10;;;;;;6338773;22;43345;-75
2023/10/28 03:01:38;;;;;;;;;;;18.50;84.60;;;;;;6339142;22;42918;-76
2023/10/28 03:04:04;;;;;;;;;;;18.60;85.50;;;;;;6339484;22;43547;-77
2023/10/28 03:06:30;;;;;;;;;;;18.60;85.00;;;;;;6338986;22;42827;-78
2023/10/28 03:08:55;;;;;;;;;;;18.60;85.10;;;;;;6339396;22;43571;-74
2023/10/28 03:11:21;;;;;;;;;;;18.60;85.10;;;;;;6340509;22;42849;-75
2023/10/28 03:13:46;;;;;;;;;;;18.70;85.10;;;;;;6339410;22;43496;-75
2023/10/28 03:16:12;;;;;;;;;;;18.60;85.00;;;;;;6338793;22;42881;-77
2023/10/28 03:18:37;;;;;;;;;;;18.50;85.30;;;;;;6339719;22;43533;-75
2023/10/28 03:21:04;;;;;;;;;;;18.60;84.60;;;;;;6339089;22;42798;-78
2023/10/28 03:23:29;;;;;;;;;;;18.70;85.10;;;;;;6337869;22;43470;-75
2023/10/28 03:25:55;;;;;;;;;;;18.70;85.30;;;;;;6339209;22;42874;-74
2023/10/28 03:28:21;;;;;;;;;;;18.60;84.50;;;;;;6339090;22;42799;-75
2023/10/28 03:30:46;;;;;;;;;;;18.60;85.00;;;;;;6338935;22;42918;-75
2023/10/28 03:33:12;;;;;;;;;;;18.50;84.50;;;;;;6338344;22;43762;-75
2023/10/28 03:35:37;;;;;;;;;;;18.50;84.90;;;;;;6338759;22;42857;-74
2023/10/28 03:38:03;;;;;;;;;;;18.40;84.70;;;;;;6338282;22;42795;-75
2023/10/28 03:40:28;;;;;;;;;;;18.40;84.10;;;;;;6340197;22;42742;-75
2023/10/28 03:42:54;;;;;;;;;;;18.50;84.50;;;;;;6341143;22;43678;-76
2023/10/28 03:45:20;;;;;;;;;;;18.70;83.40;;;;;;6340243;22;42985;-74
2023/10/28 03:47:45;;;;;;;;;;;18.40;83.90;;;;;;6340556;22;42917;-75
2023/10/28 03:50:11;;;;;;;;;;;18.50;84.10;;;;;;6343956;22;43295;-74
2023/10/28 03:52:36;;;;;;;;;;;18.50;84.10;;;;;;6343997;22;43110;-75
2023/10/28 03:55:03;;;;;;;;;;;18.60;83.40;;;;;;6343646;22;42917;-82
2023/10/28 03:57:28;;;;;;;;;;;18.70;84.30;;;;;;6340364;22;42697;-74
2023/10/28 03:59:54;;;;;;;;;;;18.60;83.60;;;;;;6340350;22;42794;-77
2023/10/28 04:02:20;;;;;;;;;;;18.70;84.50;;;;;;6339755;22;43507;-75
2023/10/28 04:04:46;;;;;;;;;;;18.60;84.20;;;;;;6340259;22;42942;-75
2023/10/28 04:07:11;;;;;;;;;;;19.30;84.20;;;;;;6340461;22;43420;-75
2023/10/28 04:09:39;;;;;;;;;;;18.70;83.20;;;;;;6340056;22;42889;-75
2023/10/28 04:12:05;;;;;;;;;;;18.60;83.20;;;;;;6338966;22;42940;-75
2023/10/28 04:14:32;;;;;;;;;;;18.70;82.80;;;;;;6338600;22;42985;-76
2023/10/28 04:16:57;;;;;;;;;;;18.80;83.70;;;;;;6340223;22;44321;-74
2023/10/28 04:19:23;;;;;;;;;;;18.70;83.60;;;;;;6340895;22;42854;-74
2023/10/28 04:21:49;;;;;;;;;;;18.70;82.20;;;;;;6339836;22;42972;-74
2023/10/28 04:24:14;;;;;;;;;;;18.70;82.10;;;;;;6339654;22;42869;-76
2023/10/28 04:26:39;;;;;;;;;;;18.70;82.40;;;;;;6338901;22;43365;-74
2023/10/28 04:29:05;;;;;;;;;;;18.60;82.80;;;;;;6339359;22;42908;-75
2023/10/28 04:31:31;;;;;;;;;;;18.60;82.10;;;;;;6340765;22;43863;-76
2023/10/28 04:33:56;;;;;;;;;;;18.40;82.50;;;;;;6340257;22;42803;-75
2023/10/28 04:36:22;;;;;;;;;;;18.40;82.90;;;;;;6339172;22;42739;-75
2023/10/28 04:38:48;;;;;;;;;;;18.50;83.30;;;;;;6339776;22;42940;-75
2023/10/28 04:41:13;;;;;;;;;;;18.60;82.90;;;;;;6339207;22;42991;-76
2023/10/28 04:43:39;;;;;;;;;;;18.40;83.20;;;;;;6340023;22;42950;-75
2023/10/28 04:46:05;;;;;;;;;;;18.50;83.50;;;;;;6339723;22;43620;-75
2023/10/28 04:48:30;;;;;;;;;;;18.40;83.50;;;;;;6340547;22;42922;-75
2023/10/28 04:50:56;;;;;;;;;;;18.40;83.20;;;;;;6337840;22;42921;-75
2023/10/28 04:53:24;;;;;;;;;;;18.40;82.70;;;;;;6339473;22;42909;-79
2023/10/28 04:55:50;;;;;;;;;;;18.50;82.30;;;;;;6339209;22;43507;-75
2023/10/28 04:58:15;;;;;;;;;;;18.30;84.20;;;;;;6339286;22;42857;-75
2023/10/28 05:00:41;;;;;;;;;;;18.60;83.60;;;;;;6339243;22;43071;-77
2023/10/28 05:03:07;;;;;;;;;;;18.60;83.30;;;;;;6339972;22;42905;-75
2023/10/28 05:05:32;;;;;;;;;;;18.00;82.80;;;;;;6338950;22;43505;-77
2023/10/28 05:07:58;;;;;;;;;;;18.50;83.10;;;;;;6339637;22;42772;-75
2023/10/28 05:10:23;;;;;;;;;;;18.50;83.10;;;;;;6339850;22;42906;-75
2023/10/28 05:12:49;;;;;;;;;;;18.60;83.10;;;;;;6339816;22;42937;-75
2023/10/28 05:15:15;;;;;;;;;;;18.50;82.10;;;;;;6339201;22;43197;-76
2023/10/28 05:17:41;;;;;;;;;;;18.50;82.20;;;;;;6340853;22;42735;-75
2023/10/28 05:20:07;;;;;;;;;;;18.50;82.50;;;;;;6339924;22;43313;-75
2023/10/28 05:22:36;;;;;;;;;;;18.60;81.80;;;;;;6340315;22;42894;-76
2023/10/28 05:25:04;;;;;;;;;;;18.50;81.80;;;;;;6338955;22;42934;-77
2023/10/28 05:27:35;;;;;;;;;;;18.40;82.50;;;;;;6339647;22;42855;-75
2023/10/28 05:30:01;;;;;;;;;;;18.80;80.70;;;;;;6339398;22;43704;-75
2023/10/28 05:32:27;;;;;;;;;;;18.60;82.30;;;;;;6339830;22;42874;-75
2023/10/28 05:34:53;;;;;;;;;;;18.50;82.50;;;;;;6340493;22;43521;-76
2023/10/28 05:37:18;;;;;;;;;;;18.50;81.30;;;;;;6340360;22;42822;-75
2023/10/28 05:39:44;;;;;;;;;;;18.40;81.90;;;;;;6339903;22;43336;-76
2023/10/28 05:42:14;;;;;;;;;;;18.40;82.50;;;;;;6339994;22;42776;-76
2023/10/28 05:44:40;;;;;;;;;;;18.40;82.00;;;;;;6339845;22;42773;-75
2023/10/28 05:47:07;;;;;;;;;;;18.40;82.90;;;;;;6339232;22;42807;-75
2023/10/28 05:49:33;;;;;;;;;;;18.70;83.20;;;;;;6338621;22;42985;-77
2023/10/28 05:51:58;;;;;;;;;;;18.60;83.20;;;;;;6340077;22;42905;-75
2023/10/28 05:54:24;;;;;;;;;;;18.30;82.90;;;;;;6339066;22;42946;-75
2023/10/28 05:56:49;;;;;;;;;;;18.20;82.90;;;;;;6338874;22;42724;-74
2023/10/28 05:59:15;;;;;;;;;;;18.30;82.40;;;;;;6339996;22;43909;-75
2023/10/28 06:01:41;;;;;;;;;;;18.30;83.40;;;;;;6339615;22;42948;-75
2023/10/28 06:04:06;;;;;;;;;;;18.40;84.20;;;;;;6338540;22;42997;-76
2023/10/28 06:06:32;;;;;;;;;;;18.40;83.40;;;;;;6339920;22;42888;-74
2023/10/28 06:08:57;;;;;;;;;;;18.30;83.10;;;;;;6337438;22;43494;-75
2023/10/28 06:11:23;;;;;;;;;;;18.40;83.00;;;;;;6339375;22;42776;-74
2023/10/28 06:13:49;;;;;;;;;;;18.40;83.50;;;;;;6338962;22;43604;-75
2023/10/28 06:16:14;;;;;;;;;;;18.30;82.70;;;;;;6339613;22;42716;-76
2023/10/28 06:18:40;;;;;;;;;;;18.40;83.50;;;;;;6342681;22;42854;-75
2023/10/28 06:21:05;;;;;;;;;;;18.20;83.90;;;;;;6342777;22;42855;-75
2023/10/28 06:23:31;;;;;;;;;;;18.40;83.60;;;;;;6341190;22;42745;-75
2023/10/28 06:25:57;;;;;;;;;;;18.30;83.40;;;;;;6340199;22;42893;-75
2023/10/28 06:28:22;;;;;;;;;;;18.40;83.60;;;;;;6339396;22;43388;-76
2023/10/28 06:30:48;;;;;;;;;;;18.30;84.10;;;;;;6339864;22;42793;-75
2023/10/28 06:33:14;;;;;;;;;;;18.30;83.60;;;;;;6338895;22;42847;-77
2023/10/28 06:35:39;;;;;;;;;;;18.30;83.50;;;;;;6339405;22;42896;-75
2023/10/28 06:38:06;;;;;;;;;;;18.40;83.70;;;;;;6338591;22;43835;-75
2023/10/28 06:40:32;;;;;;;;;;;18.40;83.60;;;;;;6340019;22;43171;-78
2023/10/28 06:42:57;;;;;;;;;;;18.60;82.90;;;;;;6339266;22;43753;-74
2023/10/28 06:45:23;;;;;;;;;;;18.40;83.40;;;;;;6339744;22;42946;-76
2023/10/28 06:47:50;;;;;;;;;;;18.40;83.90;;;;;;6339755;22;42771;-75
2023/10/28 06:50:19;;;;;;;;;;;18.40;83.90;;;;;;6339817;22;42826;-74
2023/10/28 06:52:45;;;;;;;;;;;18.50;83.40;;;;;;6339578;22;43506;-74
2023/10/28 06:55:12;;;;;;;;;;;18.50;83.10;;;;;;6338782;22;42945;-74
2023/10/28 06:57:38;;;;;;;;;;;18.40;82.80;;;;;;6339277;22;42763;-74
2023/10/28 07:00:04;;;;;;;;;;;18.40;83.30;;;;;;6337861;22;42987;-78
2023/10/28 07:02:30;;;;;;;;;;;18.60;83.20;;;;;;6338654;22;42876;-74
2023/10/28 07:04:55;;;;;;;;;;;18.60;84.20;;;;;;6338500;22;42865;-75
2023/10/28 07:07:23;;;;;;;;;;;18.60;83.70;;;;;;6338814;22;43793;-75
2023/10/28 07:09:48;;;;;;;;;;;18.50;83.80;;;;;;6338434;22;42778;-75
2023/10/28 07:12:14;;;;;;;;;;;18.50;84.30;;;;;;6311954;22;43539;-76
2023/10/28 07:14:39;;;;;;;;;;;18.70;84.10;;;;;;6337574;22;43016;-75
2023/10/28 07:17:05;;;;;;;;;;;18.50;84.30;;;;;;6339588;22;42851;-76
2023/10/28 07:19:30;;;;;;;;;;;18.60;84.40;;;;;;6339235;22;42882;-76
2023/10/28 07:21:56;;;;;;;;;;;18.60;84.20;;;;;;6340012;22;43437;-75
2023/10/28 07:24:22;;;;;;;;;;;18.50;83.60;;;;;;6340043;22;42910;-75
2023/10/28 07:26:47;;;;;;;;;;;18.80;83.70;;;;;;6340555;22;42827;-74
2023/10/28 07:29:13;;;;;;;;;;;18.80;83.70;;;;;;6340164;22;42903;-75
2023/10/28 07:31:38;;;;;;;;;;;18.90;83.70;;;;;;6340223;22;43088;-75
2023/10/28 07:34:07;;;;;;;;;;;18.90;83.70;;;;;;6340040;22;42968;-77
2023/10/28 07:36:32;;;;;;;;;;;18.80;81.80;;;;;;6338495;22;42966;-77
2023/10/28 07:39:01;;;;;;;;;;;18.70;83.80;;;;;;6339632;22;42990;-75
2023/10/28 07:41:28;;;;;;;;;;;18.80;84.30;;;;;;6340112;22;42896;-75
2023/10/28 07:43:53;;;;;;;;;;;18.80;84.30;;;;;;6339411;22;42866;-76
2023/10/28 07:46:19;;;;;;;;;;;18.90;84.10;;;;;;6339959;22;43656;-75
2023/10/28 07:48:45;;;;;;;;;;;19.00;83.70;;;;;;6341006;22;42865;-75
2023/10/28 07:51:13;;;;;;;;;;;19.10;82.60;;;;;;6339838;22;43821;-75
2023/10/28 07:53:39;;;;;;;;;;;19.00;82.30;;;;;;6339587;22;42944;-75
2023/10/28 07:56:04;;;;;;;;;;;19.30;82.10;;;;;;6339533;22;43788;-76
2023/10/28 07:58:30;;;;;;;;;;;19.00;82.60;;;;;;6340342;22;42929;-76
2023/10/28 08:00:55;;;;;;;;;;;19.00;83.20;;;;;;6339823;22;42921;-75
2023/10/28 08:03:21;;;;;;;;;;;19.20;83.10;;;;;;6339683;22;42921;-78
2023/10/28 08:05:46;;;;;;;;;;;18.90;83.00;;;;;;6338018;22;42939;-74
2023/10/28 08:08:12;;;;;;;;;;;19.30;83.00;;;;;;6339554;22;42911;-77
2023/10/28 08:10:40;;;;;;;;;;;19.20;82.30;;;;;;6338805;22;43752;-74
2023/10/28 08:13:06;;;;;;;;;;;19.10;81.10;;;;;;6338604;22;42823;-75
2023/10/28 08:15:31;;;;;;;;;;;19.20;83.20;;;;;;6338974;22;42923;-76
2023/10/28 08:17:57;;;;;;;;;;;19.20;83.50;;;;;;6339599;22;42699;-74
2023/10/28 08:20:23;;;;;;;;;;;19.10;83.90;;;;;;6339854;22;43444;-75
2023/10/28 08:22:48;;;;;;;;;;;19.10;83.90;;;;;;6340141;22;43062;-74
2023/10/28 08:25:16;;;;;;;;;;;19.00;85.10;;;;;;6339832;22;42925;-78
2023/10/28 08:27:43;;;;;;;;;;;19.10;83.60;;;;;;6339333;22;42834;-78
2023/10/28 08:30:08;;;;;;;;;;;19.10;84.60;;;;;;6312507;22;42887;-74
2023/10/28 08:32:34;;;;;;;;;;;19.20;84.20;;;;;;6340052;22;42799;-79
2023/10/28 08:35:00;;;;;;;;;;;19.30;83.90;;;;;;6340012;22;43474;-74
2023/10/28 08:37:25;;;;;;;;;;;19.30;84.10;;;;;;6340359;22;42810;-78
2023/10/28 08:39:53;;;;;;;;;;;19.30;84.10;;;;;;6341044;22;43630;-75
2023/10/28 08:42:19;;;;;;;;;;;19.20;84.00;;;;;;6340154;22;42917;-76
2023/10/28 08:44:45;;;;;;;;;;;19.40;84.30;;;;;;6343774;22;43564;-76
2023/10/28 08:47:11;;;;;;;;;;;19.30;84.00;;;;;;6344191;22;42803;-78
2023/10/28 08:49:39;;;;;;;;;;;19.20;84.50;;;;;;6319194;22;44486;-75
2023/10/28 08:52:06;;;;;;;;;;;19.40;84.80;;;;;;6342146;22;42992;-76
2023/10/28 08:54:34;;;;;;;;;;;19.20;84.70;;;;;;6339355;22;42704;-75
2023/10/28 08:57:00;;;;;;;;;;;19.50;85.20;;;;;;6340401;22;42832;-73
2023/10/28 08:59:26;;;;;;;;;;;19.10;85.20;;;;;;6339397;22;43739;-74
2023/10/28 09:01:52;;;;;;;;;;;19.40;85.20;;;;;;6340039;22;42951;-76
2023/10/28 09:04:21;;;;;;;;;;;19.30;85.80;;;;;;6339749;22;42885;-74
2023/10/28 09:06:52;;;;;;;;;;;19.30;84.90;;;;;;6339048;22;42828;-75
2023/10/28 09:09:17;;;;;;;;;;;19.60;83.50;;;;;;6339032;22;42927;-75
2023/10/28 09:11:43;;;;;;;;;;;19.50;85.30;;;;;;6338752;22;42814;-76
2023/10/28 09:14:08;;;;;;;;;;;19.50;85.10;;;;;;6339512;22;43531;-75
2023/10/28 09:16:35;;;;;;;;;;;19.40;85.60;;;;;;6339218;22;42970;-76
2023/10/28 09:19:01;;;;;;;;;;;19.50;85.60;;;;;;6339061;22;42939;-74
2023/10/28 09:21:26;;;;;;;;;;;19.50;85.50;;;;;;6340502;22;42968;-74
2023/10/28 09:23:52;;;;;;;;;;;19.50;85.60;;;;;;6340590;22;43588;-74
2023/10/28 09:26:18;;;;;;;;;;;19.60;85.50;;;;;;6339228;22;42887;-74
2023/10/28 09:28:44;;;;;;;;;;;19.50;85.30;;;;;;6339283;22;42956;-75
2023/10/28 09:31:10;;;;;;;;;;;19.50;85.10;;;;;;6338484;22;43218;-74
2023/10/28 09:33:36;;;;;;;;;;;19.50;85.00;;;;;;6338950;22;42842;-75
2023/10/28 09:36:02;;;;;;;;;;;19.50;84.50;;;;;;6339480;22;42911;-80
2023/10/28 09:38:28;;;;;;;;;;;19.60;84.50;;;;;;6336818;22;43359;-81
2023/10/28 09:40:54;;;;;;;;;;;19.50;84.60;;;;;;6339558;22;42759;-81
2023/10/28 09:43:20;;;;;;;;;;;18.50;84.10;;;;;;6339928;22;43524;-83
2023/10/28 09:45:49;;;;;;;;;;;19.50;84.70;;;;;;6340440;22;42785;-85
2023/10/28 09:48:15;;;;;;;;;;;19.40;84.60;;;;;;6339246;22;42923;-85
2023/10/28 09:50:44;;;;;;;;;;;19.60;84.80;;;;;;6338962;22;42855;-79
2023/10/28 09:53:11;;;;;;;;;;;19.50;84.80;;;;;;6340045;22;44738;-76
2023/10/28 09:55:39;;;;;;;;;;;19.60;84.70;;;;;;6339467;22;42871;-76
2023/10/28 09:58:11;;;;;;;;;;;19.60;84.60;;;;;;6340181;22;43678;-75
2023/10/28 10:00:37;;;;;;;;;;;19.50;82.60;;;;;;6339668;22;42818;-74
2023/10/28 10:03:15;;;;;;;;;;;19.60;84.50;;;;;;6340352;22;42872;-81
2023/10/28 10:05:44;;;;;;;;;;;19.70;82.60;;;;;;6339825;22;43008;-77
2023/10/28 10:08:16;;;;;;;;;;;19.60;84.50;;;;;;6339524;22;42897;-74
2023/10/28 10:10:48;;;;;;;;;;;19.70;82.60;;;;;;6340448;22;42839;-74
2023/10/28 10:13:16;;;;;;;;;;;19.50;82.70;;;;;;6339663;22;43734;-77
2023/10/28 10:16:00;;;;;;;;;;;19.70;82.10;;;;;;6339692;22;42883;-76
2023/10/28 10:18:32;;;;;;;;;;;19.50;82.20;;;;;;6339741;22;42808;-75
2023/10/28 10:21:09;;;;;;;;;;;19.70;82.10;;;;;;6339760;22;43125;-74
2023/10/28 10:23:42;;;;;;;;;;;19.60;82.20;;;;;;6339713;22;43226;-79
2023/10/28 10:26:07;;;;;;;;;;;19.60;82.80;;;;;;6339262;22;42834;-75
2023/10/28 10:28:33;;;;;;;;;;;19.60;83.70;;;;;;6339818;22;43660;-83
2023/10/28 10:31:07;;;;;;;;;;;19.50;83.40;;;;;;6339710;22;42849;-77
2023/10/28 10:33:32;;;;;;;;;;;19.60;84.00;;;;;;6339292;22;43912;-80
2023/10/28 10:35:58;;;;;;;;;;;19.40;83.60;;;;;;6339063;22;42901;-76
2023/10/28 10:38:28;;;;;;;;;;;19.40;83.40;;;;;;6339170;22;42787;-82
2023/10/28 10:40:58;;;;;;;;;;;19.50;81.90;;;;;;6339661;22;43227;-76
2023/10/28 10:43:28;;;;;;;;;;;19.70;83.80;;;;;;6339428;22;42874;-78
2023/10/28 10:49:00;;;;;;;;;;;19.70;82.40;;;;;;6238249;22;43656;-79
2023/10/28 10:51:26;;;;;;;;;;;19.70;81.50;;;;;;6278552;22;43014;-80
2023/10/28 10:53:52;;;;;;;;;;;19.60;83.20;;;;;;6278415;22;43219;-84
2023/10/28 10:56:21;;;;;;;;;;;19.60;83.10;;;;;;6279426;22;42958;-79
2023/10/28 10:58:46;;;;;;;;;;;20.20;82.20;;;;;;6278070;22;42813;-80
2023/10/28 11:01:12;;;;;;;;;;;19.80;83.80;;;;;;6250960;22;43056;-80
2023/10/28 11:03:38;;;;;;;;;;;19.80;83.70;;;;;;6278007;22;43294;-80
2023/10/28 11:06:04;;;;;;;;;;;19.80;83.30;;;;;;6279337;22;42884;-86
2023/10/28 11:08:30;;;;;;;;;;;19.70;83.30;;;;;;6278789;22;43426;-79
2023/10/28 11:10:55;;;;;;;;;;;19.60;83.80;;;;;;6277890;22;42871;-79
2023/10/28 11:13:22;;;;;;;;;;;19.80;84.10;;;;;;6286134;22;43550;-78
2023/10/28 11:15:49;;;;;;;;;;;19.70;84.10;;;;;;6286450;22;42787;-81
2023/10/28 11:18:15;;;;;;;;;;;19.70;84.00;;;;;;6285070;22;42754;-81
2023/10/28 11:20:42;;;;;;;;;;;19.70;84.00;;;;;;6279955;22;43035;-80
2023/10/28 11:23:08;;;;;;;;;;;19.70;84.10;;;;;;6278783;22;42936;-81
2023/10/28 11:25:33;;;;;;;;;;;19.70;84.20;;;;;;6278711;22;42867;-80
2023/10/28 11:28:04;;;;;;;;;;;19.70;84.00;;;;;;6278467;22;42918;-79
2023/10/28 11:30:29;;;;;;;;;;;19.60;84.00;;;;;;6279400;22;42887;-80
2023/10/28 11:32:55;;;;;;;;;;;19.70;84.10;;;;;;6279686;22;42969;-81
2023/10/28 11:35:21;;;;;;;;;;;19.80;84.20;;;;;;6279286;22;42839;-86
2023/10/28 11:37:47;;;;;;;;;;;19.80;84.30;;;;;;6279341;22;43270;-85
2023/10/28 11:40:13;;;;;;;;;;;19.80;84.20;;;;;;6278527;22;43011;-84
2023/10/28 11:42:39;;;;;;;;;;;20.90;84.80;;;;;;6278220;22;42861;-86
2023/10/28 11:45:09;;;;;;;;;;;19.90;84.30;;;;;;6278362;22;42899;-85
2023/10/28 11:47:35;;;;;;;;;;;19.70;83.50;;;;;;6278188;22;43380;-85
2023/10/28 11:50:00;;;;;;;;;;;19.80;84.30;;;;;;6251828;22;42908;-82
2023/10/28 11:52:26;;;;;;;;;;;19.90;84.30;;;;;;6278219;22;43183;-80
2023/10/28 11:54:53;;;;;;;;;;;19.80;84.20;;;;;;6278435;22;42740;-81
2023/10/28 11:57:19;;;;;;;;;;;19.90;83.80;;;;;;6279160;22;43565;-82
2023/10/28 11:59:44;;;;;;;;;;;19.70;83.70;;;;;;6278583;22;42839;-80
2023/10/28 12:02:10;;;;;;;;;;;19.80;83.70;;;;;;6278560;22;43394;-79
2023/10/28 12:04:35;;;;;;;;;;;20.00;83.80;;;;;;6277573;22;42893;-83
2023/10/28 12:07:01;;;;;;;;;;;19.90;83.80;;;;;;6277324;22;42894;-80
2023/10/28 12:09:35;;;;;;;;;;;19.80;84.40;;;;;;6279330;22;42687;-82
2023/10/28 12:12:02;;;;;;;;;;;19.90;82.40;;;;;;6278307;22;43959;-80
2023/10/28 12:14:27;;;;;;;;;;;19.60;84.10;;;;;;6277843;22;42862;-79
2023/10/28 12:16:53;;;;;;;;;;;19.90;83.80;;;;;;6277793;22;42758;-85
2023/10/28 12:19:18;;;;;;;;;;;19.80;84.20;;;;;;6278421;22;42865;-82
2023/10/28 12:21:44;;;;;;;;;;;19.80;84.10;;;;;;6278145;22;42776;-80
2023/10/28 12:24:11;;;;;;;;;;;19.90;83.70;;;;;;6278066;22;42706;-80
2023/10/28 12:26:37;;;;;;;;;;;19.90;84.20;;;;;;6277594;22;42757;-80
2023/10/28 12:29:03;;;;;;;;;;;19.80;84.70;;;;;;6278848;22;43067;-86
2023/10/28 12:31:32;;;;;;;;;;;20.00;84.20;;;;;;6278549;22;43447;-80
2023/10/28 12:34:01;;;;;;;;;;;19.90;84.10;;;;;;6278363;22;42840;-80
2023/10/28 12:36:27;;;;;;;;;;;19.90;84.20;;;;;;6278949;22;42793;-80
2023/10/28 12:38:52;;;;;;;;;;;20.00;84.20;;;;;;6278856;22;42783;-80
2023/10/28 12:41:18;;;;;;;;;;;19.90;83.70;;;;;;6278641;22;42887;-79
2023/10/28 12:43:43;;;;;;;;;;;20.00;83.70;;;;;;6278340;22;42948;-81
2023/10/28 12:46:10;;;;;;;;;;;19.90;84.00;;;;;;6278480;22;44526;-80
2023/10/28 12:48:36;;;;;;;;;;;19.90;84.00;;;;;;6278909;22;42919;-80
2023/10/28 12:51:01;;;;;;;;;;;20.00;84.20;;;;;;6278378;22;43311;-80
2023/10/28 12:53:27;;;;;;;;;;;20.00;84.10;;;;;;6277870;22;42903;-81
2023/10/28 12:55:53;;;;;;;;;;;20.00;84.00;;;;;;6278328;22;44033;-80
2023/10/28 12:58:19;;;;;;;;;;;19.90;83.90;;;;;;6278660;22;42803;-80
2023/10/28 13:00:44;;;;;;;;;;;19.90;84.10;;;;;;6279899;22;42884;-81
2023/10/28 13:03:10;;;;;;;;;;;19.90;84.00;;;;;;6279577;22;42718;-80
2023/10/28 13:05:35;;;;;;;;;;;19.90;84.00;;;;;;6279354;22;44244;-79
2023/10/28 13:08:02;;;;;;;;;;;19.90;84.00;;;;;;6279866;22;42947;-79
2023/10/28 13:10:28;;;;;;;;;;;19.60;83.80;;;;;;6279882;22;43534;-79
2023/10/28 13:12:56;;;;;;;;;;;19.90;84.00;;;;;;6279512;22;42942;-84
2023/10/28 13:15:22;;;;;;;;;;;20.00;83.50;;;;;;6279615;22;43937;-80
2023/10/28 13:17:48;;;;;;;;;;;20.10;84.10;;;;;;6279362;22;42754;-81
2023/10/28 13:20:14;;;;;;;;;;;19.80;83.90;;;;;;6278729;22;42882;-86
2023/10/28 13:22:40;;;;;;;;;;;20.00;83.90;;;;;;6279192;22;42980;-80
2023/10/28 13:25:06;;;;;;;;;;;20.10;83.50;;;;;;6279607;22;43566;-79
2023/10/28 13:27:31;;;;;;;;;;;20.10;83.50;;;;;;6279709;22;42876;-80
2023/10/28 13:29:57;;;;;;;;;;;20.10;84.10;;;;;;6278703;22;42852;-79
2023/10/28 13:32:22;;;;;;;;;;;20.00;83.50;;;;;;6278890;22;42820;-85
2023/10/28 13:34:48;;;;;;;;;;;20.10;83.40;;;;;;6279030;22;43405;-79
2023/10/28 13:37:13;;;;;;;;;;;19.90;83.90;;;;;;6279070;22;42803;-80
2023/10/28 13:39:39;;;;;;;;;;;20.00;83.30;;;;;;6277783;22;43236;-80
2023/10/28 13:42:05;;;;;;;;;;;20.10;83.40;;;;;;6278567;22;43500;-84
2023/10/28 13:44:30;;;;;;;;;;;20.00;83.80;;;;;;6278503;22;43367;-78
2023/10/28 13:46:55;;;;;;;;;;;20.10;83.40;;;;;;6286414;22;42827;-85
2023/10/28 13:49:23;;;;;;;;;;;20.10;83.40;;;;;;6255277;22;44161;-84
2023/10/28 13:51:49;;;;;;;;;;;20.10;83.40;;;;;;6278084;22;42731;-81
2023/10/28 13:54:14;;;;;;;;;;;20.10;83.90;;;;;;6277217;22;43564;-79
2023/10/28 13:56:40;;;;;;;;;;;20.20;83.30;;;;;;6250975;22;42926;-79
2023/10/28 13:59:06;;;;;;;;;;;20.00;83.30;;;;;;6276851;22;43718;-79
2023/10/28 14:01:33;;;;;;;;;;;20.20;83.20;;;;;;6276739;22;42930;-80
2023/10/28 14:03:59;;;;;;;;;;;20.20;83.40;;;;;;6276665;22;42837;-79
2023/10/28 14:06:24;;;;;;;;;;;20.10;83.10;;;;;;6277129;22;42891;-81
2023/10/28 14:08:50;;;;;;;;;;;20.20;83.30;;;;;;6277580;22;42809;-80
2023/10/28 14:11:20;;;;;;;;;;;20.10;83.30;;;;;;6276654;22;42880;-80
2023/10/28 14:13:45;;;;;;;;;;;20.00;83.10;;;;;;6277468;22;43749;-80